createdAt,value
2023-06-04T00:20:17.527Z,19.09
2023-06-04T01:05:01.683Z,18.41
2023-06-04T01:20:13.289Z,18.25
2023-06-04T01:35:00.109Z,17.98
2023-06-04T01:49:52.594Z,17.81
2023-06-04T02:04:43.910Z,17.63
2023-06-04T02:19:35.248Z,17.47
2023-06-04T02:34:27.161Z,17.28
2023-06-04T02:49:18.419Z,17.11
2023-06-04T03:04:10.431Z,17.01
2023-06-04T03:19:04.181Z,16.87
2023-06-04T03:33:55.374Z,16.63
2023-06-04T03:48:48.042Z,16.44
2023-06-04T04:03:39.169Z,16.33
2023-06-04T04:18:29.419Z,16.36
2023-06-04T04:33:20.926Z,16.31
2023-06-04T04:48:12.288Z,16.24
2023-06-04T05:03:04.484Z,16.30
2023-06-04T05:17:56.989Z,16.47
2023-06-04T05:32:50.446Z,16.80
2023-06-04T05:47:42.793Z,16.86
2023-06-04T06:02:36.262Z,17.26
2023-06-04T06:17:32.888Z,17.56
2023-06-04T06:32:24.979Z,17.83
2023-06-04T06:47:18.759Z,18.22
2023-06-04T07:02:11.086Z,18.53
2023-06-04T07:17:05.719Z,19.02
2023-06-04T07:31:58.176Z,19.42
2023-06-04T07:46:50.660Z,19.78
2023-06-04T08:01:44.872Z,20.19
2023-06-04T08:16:37.592Z,20.56
2023-06-04T08:31:31.171Z,20.84
2023-06-04T08:46:23.522Z,21.20
2023-06-04T09:01:16.850Z,21.64
2023-06-04T09:16:10.002Z,22.07
2023-06-04T09:31:02.944Z,22.60
2023-06-04T09:45:56.676Z,22.87
2023-06-04T10:45:31.158Z,24.49
2023-06-04T11:00:42.550Z,24.92
2023-06-04T11:16:01.149Z,25.26
2023-06-04T11:45:57.585Z,25.98
2023-06-04T12:00:49.726Z,26.56
2023-06-04T12:30:36.440Z,27.31
2023-06-04T13:00:20.755Z,27.65
2023-06-04T13:15:13.423Z,28.07
2023-06-04T14:14:51.611Z,29.21
2023-06-04T14:44:39.545Z,30.33
2023-06-04T15:29:23.711Z,31.66
2023-06-04T15:44:18.691Z,32.34
2023-06-04T15:59:09.872Z,32.20
2023-06-04T16:14:05.217Z,32.55
2023-06-04T16:28:59.388Z,30.37
2023-06-04T16:43:44.997Z,28.67
2023-06-04T16:58:35.634Z,27.79
2023-06-04T17:13:28.142Z,27.39
2023-06-04T17:28:21.765Z,27.57
2023-06-04T17:43:19.820Z,32.24
2023-06-04T17:58:13.581Z,28.35
2023-06-04T18:13:01.829Z,27.01
2023-06-04T18:27:52.736Z,26.37
2023-06-04T18:42:44.445Z,25.91
2023-06-04T18:57:36.198Z,25.49
2023-06-04T19:12:27.054Z,25.12
2023-06-04T19:27:21.021Z,24.72
2023-06-04T19:42:31.995Z,24.36
2023-06-04T19:57:17.578Z,24.02
2023-06-04T20:12:08.916Z,23.66
2023-06-04T20:27:01.816Z,23.35
2023-06-04T20:41:53.742Z,23.08
2023-06-04T20:56:44.669Z,22.70
2023-06-04T21:11:52.365Z,22.53
2023-06-04T21:26:38.522Z,22.15
2023-06-04T21:41:29.802Z,21.94
2023-06-04T21:56:22.386Z,21.70
2023-06-04T22:26:07.410Z,21.15
2023-06-04T22:40:58.347Z,20.86
2023-06-04T23:10:42.791Z,20.39
